Time;durP1;ratioP1;P1;durP2;ratioP2;P2;SDS_P1;SDS_P2;PMS_P1;PMS_P2;Temp;Humidity;BMP_temperature;BMP_pressure;BME280_temperature;BME280_humidity;BME280_pressure;Samples;Min_cycle;Max_cycle;Signal;HPM_P1;HPM_P2
2022/07/02 00:00:17;;;;;;;0.43;0.43;;;17.00;99.90;;;;;;4936062;29;20413;-70
2022/07/02 00:02:45;;;;;;;0.10;0.10;;;17.10;99.90;;;;;;4918446;29;20028;-70
2022/07/02 00:05:13;;;;;;;0.17;0.17;;;17.00;99.90;;;;;;4934551;29;20095;-69
2022/07/02 00:07:39;;;;;;;0.68;0.63;;;16.80;99.90;;;;;;4918643;29;20526;-69
2022/07/02 00:10:06;;;;;;;0.00;0.00;;;16.60;99.90;;;;;;4918780;29;20027;-69
2022/07/02 00:12:32;;;;;;;1.60;0.98;;;16.50;99.90;;;;;;4934132;29;20130;-70
2022/07/02 00:14:59;;;;;;;1.02;0.47;;;16.30;99.90;;;;;;4935582;29;20059;-69
2022/07/02 00:17:26;;;;;;;0.15;0.15;;;16.20;99.90;;;;;;4935525;29;20031;-69
2022/07/02 00:19:53;;;;;;;0.10;0.10;;;16.20;99.90;;;;;;4934642;29;20129;-69
2022/07/02 00:22:19;;;;;;;17.08;1.65;;;16.30;99.90;;;;;;4934332;29;20051;-70
2022/07/02 00:24:46;;;;;;;0.10;0.10;;;16.20;99.90;;;;;;4935520;29;20028;-70
2022/07/02 00:27:17;;;;;;;0.00;0.00;;;16.30;99.90;;;;;;4918335;29;20542;-70
2022/07/02 00:30:03;;;;;;;0.40;0.30;;;16.20;99.90;;;;;;4934305;29;20028;-70
2022/07/02 00:32:35;;;;;;;0.10;0.10;;;16.20;99.90;;;;;;4934072;29;20043;-70
2022/07/02 00:35:08;;;;;;;0.52;0.45;;;16.20;99.90;;;;;;4935461;29;20027;-70
2022/07/02 00:37:37;;;;;;;1.05;0.55;;;16.10;99.90;;;;;;4934135;29;20036;-69
2022/07/02 00:40:05;;;;;;;0.38;0.38;;;16.20;99.90;;;;;;4934024;29;20023;-68
2022/07/02 00:42:34;;;;;;;0.20;0.20;;;16.20;99.90;;;;;;4949489;29;20122;-69
2022/07/02 00:45:01;;;;;;;0.10;0.08;;;16.20;99.90;;;;;;4934044;29;20035;-69
2022/07/02 00:47:29;;;;;;;0.00;0.00;;;16.30;99.90;;;;;;4935309;29;20031;-69
2022/07/02 00:49:55;;;;;;;0.32;0.10;;;16.30;99.90;;;;;;4933915;29;20110;-69
2022/07/02 00:52:22;;;;;;;0.20;0.20;;;16.20;99.90;;;;;;4933343;29;20476;-69
2022/07/02 00:54:47;;;;;;;8.13;0.88;;;16.10;99.90;;;;;;4933892;29;20039;-69
2022/07/02 00:57:13;;;;;;;0.20;0.20;;;16.10;99.90;;;;;;4933128;29;20050;-70
2022/07/02 00:59:40;;;;;;;0.00;0.00;;;16.00;99.90;;;;;;4933766;29;20027;-69
2022/07/02 01:02:10;;;;;;;0.00;0.00;;;16.00;99.90;;;;;;4917553;29;20114;-70
2022/07/02 01:04:36;;;;;;;0.00;0.00;;;15.90;99.90;;;;;;4941815;28;20467;-69
2022/07/02 01:07:10;;;;;;;0.00;0.00;;;15.90;99.90;;;;;;4951811;28;20109;-69
2022/07/02 01:12:26;;;;;;;0.10;0.10;;;15.80;99.90;;;;;;4969677;28;20321;-69
2022/07/02 01:14:54;;;;;;;0.08;0.08;;;15.90;99.90;;;;;;4970066;28;20027;-70
2022/07/02 01:17:21;;;;;;;0.00;0.00;;;15.90;99.90;;;;;;4953287;28;20023;-69
2022/07/02 01:19:47;;;;;;;0.32;0.32;;;15.80;99.90;;;;;;4968476;28;20031;-69
2022/07/02 01:22:22;;;;;;;0.20;0.20;;;15.70;99.90;;;;;;4952120;29;20467;-69
2022/07/02 01:24:57;;;;;;;0.20;0.20;;;15.80;99.90;;;;;;4966394;28;20039;-69
2022/07/02 01:27:23;;;;;;;0.00;0.00;;;15.70;99.90;;;;;;4971355;28;20066;-69
2022/07/02 01:29:50;;;;;;;0.75;0.30;;;15.70;99.90;;;;;;4971633;28;20046;-69
2022/07/02 01:32:16;;;;;;;0.52;0.52;;;15.70;99.90;;;;;;4971319;28;20025;-69
2022/07/02 01:34:46;;;;;;;0.70;0.32;;;15.70;99.90;;;;;;4972608;28;20378;-70
2022/07/02 01:37:14;;;;;;;0.22;0.22;;;15.60;99.90;;;;;;4972455;28;20035;-69
2022/07/02 01:39:42;;;;;;;0.10;0.10;;;15.60;99.90;;;;;;4972543;28;20027;-69
2022/07/02 01:42:10;;;;;;;0.00;0.00;;;15.70;99.90;;;;;;4955008;28;20035;-69
2022/07/02 01:44:38;;;;;;;0.35;0.28;;;15.70;99.90;;;;;;4967889;28;20055;-69
2022/07/02 01:47:07;;;;;;;0.10;0.10;;;15.60;99.90;;;;;;4952976;28;20042;-69
2022/07/02 01:49:35;;;;;;;0.00;0.00;;;15.60;99.90;;;;;;4953391;29;20027;-70
2022/07/02 01:52:02;;;;;;;0.20;0.20;;;15.60;99.90;;;;;;4953015;29;20117;-69
2022/07/02 01:54:29;;;;;;;0.05;0.05;;;15.70;99.90;;;;;;4967608;28;20142;-69
2022/07/02 01:56:55;;;;;;;0.70;0.70;;;15.70;99.90;;;;;;4951731;28;20117;-69
2022/07/02 01:59:21;;;;;;;0.00;0.00;;;15.70;99.90;;;;;;4968174;28;20090;-69
2022/07/02 02:01:47;;;;;;;0.10;0.10;;;15.70;99.90;;;;;;4952982;29;20028;-70
2022/07/02 02:04:13;;;;;;;0.08;0.08;;;15.70;99.90;;;;;;4951131;29;20031;-69
2022/07/02 02:06:39;;;;;;;0.10;0.10;;;15.60;99.90;;;;;;4953363;28;20050;-69
2022/07/02 02:09:06;;;;;;;0.13;0.13;;;15.50;99.90;;;;;;4967948;28;20035;-69
2022/07/02 02:11:31;;;;;;;0.00;0.00;;;15.50;99.90;;;;;;4968000;28;20035;-69
2022/07/02 02:13:58;;;;;;;0.00;0.00;;;15.50;99.90;;;;;;4967442;28;20439;-69
2022/07/02 02:16:29;;;;;;;0.00;0.00;;;15.50;99.90;;;;;;4985187;28;20093;-69
2022/07/02 02:18:56;;;;;;;;;;;15.50;99.90;;;;;;4972321;28;20486;-69
2022/07/02 02:21:25;;;;;;;0.00;0.00;;;15.40;99.90;;;;;;4972459;28;19965;-70
2022/07/02 02:23:52;;;;;;;0.10;0.10;;;15.50;99.90;;;;;;4970624;28;20026;-69
2022/07/02 02:26:17;;;;;;;0.00;0.00;;;15.50;99.90;;;;;;4971955;28;20061;-69
2022/07/02 02:28:46;;;;;;;1.48;0.65;;;15.40;99.90;;;;;;4971125;28;20067;-69
2022/07/02 02:31:12;;;;;;;0.10;0.10;;;15.40;99.90;;;;;;4970765;28;20027;-69
2022/07/02 02:33:38;;;;;;;0.00;0.00;;;15.30;99.90;;;;;;4971818;28;20035;-69
2022/07/02 02:36:04;;;;;;;0.17;0.17;;;15.20;99.90;;;;;;4970894;28;20126;-70
2022/07/02 02:38:30;;;;;;;0.00;0.00;;;15.30;99.90;;;;;;4971000;28;20033;-69
2022/07/02 02:40:56;;;;;;;0.10;0.10;;;15.30;99.90;;;;;;4971997;28;20442;-69
2022/07/02 02:43:21;;;;;;;0.00;0.00;;;15.20;99.90;;;;;;4971901;28;20066;-70
2022/07/02 02:45:48;;;;;;;0.00;0.00;;;15.10;99.90;;;;;;4971940;28;20034;-70
2022/07/02 02:48:15;;;;;;;0.15;0.15;;;15.00;99.90;;;;;;4971992;28;20034;-69
2022/07/02 02:50:41;;;;;;;0.20;0.20;;;15.10;99.90;;;;;;4970652;28;20125;-69
2022/07/02 02:53:07;;;;;;;0.10;0.10;;;15.00;99.90;;;;;;4970294;28;20106;-69
2022/07/02 02:55:33;;;;;;;0.28;0.22;;;15.00;99.90;;;;;;4971654;28;20371;-70
2022/07/02 02:57:58;;;;;;;0.20;0.20;;;15.00;99.90;;;;;;4975250;28;20093;-70
2022/07/02 03:00:24;;;;;;;0.00;0.00;;;15.10;99.90;;;;;;4975804;28;20031;-69
2022/07/02 03:02:50;;;;;;;1.60;1.02;;;15.00;99.90;;;;;;4975420;28;20034;-70
2022/07/02 03:05:16;;;;;;;0.00;0.00;;;14.90;99.90;;;;;;4975238;28;20027;-70
2022/07/02 03:07:41;;;;;;;0.35;0.35;;;14.70;99.90;;;;;;4975212;28;20031;-70
2022/07/02 03:10:08;;;;;;;0.00;0.00;;;14.70;99.90;;;;;;4975384;28;20096;-70
2022/07/02 03:12:34;;;;;;;0.00;0.00;;;14.60;99.90;;;;;;4973437;28;20523;-70
2022/07/02 03:14:59;;;;;;;0.25;0.25;;;14.50;99.90;;;;;;4967729;28;20114;-71
2022/07/02 03:17:25;;;;;;;0.00;0.00;;;14.60;99.90;;;;;;4955631;28;20117;-69
2022/07/02 03:19:51;;;;;;;0.00;0.00;;;14.60;99.90;;;;;;4955749;29;20027;-69
2022/07/02 03:22:17;;;;;;;0.13;0.13;;;14.60;99.90;;;;;;4955465;29;20027;-69
2022/07/02 03:24:43;;;;;;;0.10;0.10;;;14.70;99.90;;;;;;4970598;28;20020;-70
2022/07/02 03:27:09;;;;;;;0.25;0.25;;;14.70;99.90;;;;;;4955488;28;20151;-70
2022/07/02 03:29:34;;;;;;;0.85;0.50;;;14.60;99.90;;;;;;4970552;28;20090;-69
2022/07/02 03:32:00;;;;;;;0.05;0.05;;;14.40;99.90;;;;;;4954280;29;20039;-69
2022/07/02 03:34:26;;;;;;;0.10;0.10;;;14.50;99.90;;;;;;4955391;29;20483;-70
2022/07/02 03:36:52;;;;;;;0.75;0.47;;;14.30;99.90;;;;;;4970132;28;20581;-69
2022/07/02 03:39:17;;;;;;;0.20;0.10;;;14.40;99.90;;;;;;4970250;28;20442;-72
2022/07/02 03:41:43;;;;;;;0.20;0.20;;;14.40;99.90;;;;;;4955564;29;20041;-70
2022/07/02 03:44:09;;;;;;;1.45;0.65;;;14.40;99.90;;;;;;4955390;29;20082;-70
2022/07/02 03:46:34;;;;;;;0.10;0.10;;;14.40;99.90;;;;;;4955388;28;20506;-70
2022/07/02 03:49:00;;;;;;;0.20;0.10;;;14.30;99.90;;;;;;4953969;28;20462;-69
2022/07/02 03:51:26;;;;;;;0.10;0.10;;;14.40;99.90;;;;;;4954992;29;20030;-70
2022/07/02 03:53:52;;;;;;;0.32;0.32;;;14.40;99.90;;;;;;4954695;29;20122;-70
2022/07/02 03:56:18;;;;;;;0.00;0.00;;;14.40;99.90;;;;;;4985578;23;20035;-69
2022/07/02 03:58:43;;;;;;;2.28;0.57;;;14.50;99.90;;;;;;4984941;28;20092;-68
2022/07/02 04:01:12;;;;;;;0.00;0.00;;;14.60;99.90;;;;;;4974578;28;20089;-68
2022/07/02 04:03:38;;;;;;;0.00;0.00;;;14.60;99.90;;;;;;4973734;28;20042;-69
2022/07/02 04:06:04;;;;;;;0.10;0.10;;;14.70;99.90;;;;;;4972329;28;20041;-69
2022/07/02 04:08:30;;;;;;;0.00;0.00;;;14.60;99.90;;;;;;4953609;28;20035;-64
2022/07/02 04:10:56;;;;;;;0.00;0.00;;;14.70;99.90;;;;;;4953777;28;20031;-64
2022/07/02 04:13:21;;;;;;;0.28;0.28;;;14.80;99.90;;;;;;4954468;28;20039;-63
2022/07/02 04:15:47;;;;;;;0.45;0.20;;;14.90;99.90;;;;;;4979258;28;20030;-64
2022/07/02 04:18:13;;;;;;;2.20;1.55;;;14.80;99.90;;;;;;4993740;28;20514;-63
2022/07/02 04:20:38;;;;;;;0.00;0.00;;;14.80;99.90;;;;;;4993311;28;20116;-63
2022/07/02 04:23:04;;;;;;;0.03;0.03;;;14.80;99.90;;;;;;4991735;28;20038;-64
2022/07/02 04:25:30;;;;;;;0.80;0.75;;;14.80;99.90;;;;;;4993194;28;20034;-63
2022/07/02 04:27:56;;;;;;;0.00;0.00;;;14.90;99.90;;;;;;4993591;28;20109;-64
2022/07/02 04:30:22;;;;;;;0.28;0.10;;;14.90;99.90;;;;;;4991845;28;20041;-64
2022/07/02 04:32:48;;;;;;;0.22;0.22;;;15.00;99.90;;;;;;4993147;28;20046;-63
2022/07/02 04:35:13;;;;;;;0.08;0.08;;;15.00;99.90;;;;;;4992090;28;20026;-64
2022/07/02 04:37:40;;;;;;;0.52;0.43;;;15.10;99.90;;;;;;4991839;28;20034;-64
2022/07/02 04:40:07;;;;;;;0.10;0.10;;;15.10;99.90;;;;;;4993002;28;20026;-63
2022/07/02 04:42:33;;;;;;;0.35;0.35;;;15.10;99.90;;;;;;4992811;28;20030;-64
2022/07/02 04:44:59;;;;;;;0.00;0.00;;;15.10;99.90;;;;;;4993159;28;20120;-63
2022/07/02 04:47:24;;;;;;;0.00;0.00;;;15.20;99.90;;;;;;4993106;28;20026;-64
2022/07/02 04:49:50;;;;;;;0.00;0.00;;;15.20;99.90;;;;;;4993022;28;20037;-64
2022/07/02 04:52:17;;;;;;;0.10;0.10;;;15.20;99.90;;;;;;4992381;28;20039;-63
2022/07/02 04:54:42;;;;;;;0.00;0.00;;;15.30;99.90;;;;;;4992469;28;20023;-63
2022/07/02 04:57:08;;;;;;;0.13;0.13;;;15.30;99.90;;;;;;4992314;28;20062;-64
2022/07/02 04:59:34;;;;;;;1.20;0.40;;;15.40;99.90;;;;;;4992610;28;20084;-65
2022/07/02 05:02:00;;;;;;;0.30;0.30;;;15.50;99.90;;;;;;4992601;28;20034;-63
2022/07/02 05:04:26;;;;;;;0.00;0.00;;;15.60;99.90;;;;;;4990951;28;20034;-64
2022/07/02 05:06:52;;;;;;;0.22;0.20;;;15.70;99.90;;;;;;4991233;28;20052;-64
2022/07/02 05:09:17;;;;;;;0.65;0.65;;;15.70;99.90;;;;;;4992572;28;20077;-64
2022/07/02 05:11:43;;;;;;;0.05;0.05;;;15.80;99.90;;;;;;4992415;28;20061;-64
2022/07/02 05:14:09;;;;;;;0.10;0.10;;;15.90;99.90;;;;;;4992184;28;20125;-64
2022/07/02 05:16:34;;;;;;;0.00;0.00;;;16.00;99.90;;;;;;4973263;28;20037;-63
2022/07/02 05:19:00;;;;;;;0.90;0.65;;;16.10;99.90;;;;;;4972489;28;20554;-64
2022/07/02 05:21:26;;;;;;;0.00;0.00;;;16.00;99.90;;;;;;4987697;28;20026;-63
2022/07/02 05:23:51;;;;;;;0.00;0.00;;;16.00;99.90;;;;;;4987658;28;20069;-63
2022/07/02 05:26:19;;;;;;;0.20;0.20;;;16.00;99.90;;;;;;4972898;28;20092;-63
2022/07/02 05:28:45;;;;;;;0.10;0.10;;;16.10;99.90;;;;;;4973210;28;20037;-64
2022/07/02 05:31:10;;;;;;;0.35;0.35;;;16.10;99.90;;;;;;5003969;28;20026;-64
2022/07/02 05:33:36;;;;;;;0.40;0.40;;;16.10;99.90;;;;;;4971501;28;20093;-64
2022/07/02 05:36:03;;;;;;;0.10;0.10;;;16.10;99.90;;;;;;5003659;28;20502;-63
2022/07/02 05:38:29;;;;;;;0.20;0.20;;;16.30;99.90;;;;;;4972762;28;20034;-63
2022/07/02 05:40:54;;;;;;;0.10;0.10;;;16.30;99.90;;;;;;4972431;28;20046;-63
2022/07/02 05:43:20;;;;;;;0.08;0.08;;;16.40;99.90;;;;;;5003662;28;20030;-64
2022/07/02 05:45:48;;;;;;;0.70;0.43;;;16.50;99.90;;;;;;4972611;28;20055;-64
2022/07/02 05:48:13;;;;;;;0.38;0.20;;;16.50;99.90;;;;;;4972519;28;20055;-64
2022/07/02 05:50:39;;;;;;;0.10;0.10;;;16.70;99.90;;;;;;4972425;28;20034;-64
2022/07/02 05:53:05;;;;;;;0.03;0.03;;;16.60;99.90;;;;;;5003337;28;20791;-64
2022/07/02 05:55:30;;;;;;;0.25;0.22;;;16.60;99.90;;;;;;4972355;28;20030;-64
2022/07/02 05:57:56;;;;;;;0.20;0.20;;;16.60;99.90;;;;;;4987300;28;20041;-64
2022/07/02 06:00:22;;;;;;;0.43;0.43;;;16.80;99.90;;;;;;4972301;28;20105;-64
2022/07/02 06:02:47;;;;;;;0.85;0.73;;;16.90;99.90;;;;;;4971608;28;20110;-65
2022/07/02 06:07:57;;;;;;;0.00;0.00;;;17.00;99.90;;;;;;4970138;28;20112;-62
2022/07/02 06:10:25;;;;;;;0.13;0.13;;;17.00;99.90;;;;;;4976860;28;20066;-63
2022/07/02 06:12:53;;;;;;;0.40;0.40;;;17.20;99.90;;;;;;4979911;28;20486;-62
2022/07/02 06:15:20;;;;;;;0.30;0.30;;;17.30;99.90;;;;;;4990255;28;20046;-63
2022/07/02 06:17:47;;;;;;;0.10;0.10;;;17.30;99.90;;;;;;4987755;28;20462;-61
2022/07/02 06:20:14;;;;;;;0.00;0.00;;;17.30;99.90;;;;;;4971611;28;20031;-62
2022/07/02 06:22:40;;;;;;;1.25;0.85;;;17.40;99.90;;;;;;4986832;28;20039;-64
2022/07/02 06:25:08;;;;;;;0.00;0.00;;;17.40;99.90;;;;;;4987173;28;20063;-63
2022/07/02 06:27:34;;;;;;;0.22;0.13;;;17.50;99.90;;;;;;4971754;28;20531;-63
2022/07/02 06:30:04;;;;;;;0.25;0.25;;;17.60;99.90;;;;;;4988387;28;20467;-63
2022/07/02 06:32:31;;;;;;;1.10;0.98;;;17.70;99.90;;;;;;4975783;28;20054;-63
2022/07/02 06:34:57;;;;;;;0.00;0.00;;;17.80;99.90;;;;;;4975812;28;20031;-63
2022/07/02 06:37:24;;;;;;;0.00;0.00;;;17.90;99.90;;;;;;4990731;28;20035;-63
2022/07/02 06:39:51;;;;;;;0.35;0.35;;;17.80;99.90;;;;;;4990607;28;20033;-64
2022/07/02 06:42:20;;;;;;;0.55;0.55;;;17.90;99.90;;;;;;4975370;28;20041;-64
2022/07/02 06:44:57;;;;;;;3.40;1.08;;;18.00;99.90;;;;;;4975686;28;20391;-64
2022/07/02 06:47:24;;;;;;;0.10;0.10;;;18.10;99.90;;;;;;4990245;28;20026;-63
2022/07/02 06:49:53;;;;;;;0.10;0.10;;;18.30;99.90;;;;;;4975587;28;20038;-63
2022/07/02 06:52:18;;;;;;;0.10;0.10;;;18.40;99.90;;;;;;4975408;28;20283;-63
2022/07/02 06:54:44;;;;;;;0.00;0.00;;;18.40;99.90;;;;;;4974565;28;20106;-63
2022/07/02 06:57:11;;;;;;;0.00;0.00;;;18.40;99.90;;;;;;4975090;28;20110;-62
2022/07/02 06:59:37;;;;;;;0.03;0.03;;;18.50;99.90;;;;;;4975293;28;20030;-62
2022/07/02 07:02:04;;;;;;;0.00;0.00;;;18.50;99.90;;;;;;4975487;28;20035;-62
2022/07/02 07:04:31;;;;;;;0.20;0.20;;;18.70;99.90;;;;;;4974001;28;20821;-62
2022/07/02 07:07:00;;;;;;;0.00;0.00;;;18.60;99.90;;;;;;4975386;28;20034;-62
2022/07/02 07:09:27;;;;;;;0.10;0.10;;;18.60;99.90;;;;;;4989879;28;20031;-62
2022/07/02 07:11:54;;;;;;;0.03;0.03;;;18.80;99.90;;;;;;4974968;28;20041;-62
2022/07/02 07:14:20;;;;;;;0.40;0.32;;;18.90;99.90;;;;;;4974991;28;20066;-62
2022/07/02 07:16:46;;;;;;;0.00;0.00;;;18.90;99.90;;;;;;4975406;28;20483;-62
2022/07/02 07:19:12;;;;;;;0.00;0.00;;;18.90;99.90;;;;;;4989996;28;20037;-63
2022/07/02 07:21:42;;;;;;;1.10;1.00;;;19.10;99.90;;;;;;4975147;28;20027;-65
2022/07/02 07:24:09;;;;;;;0.53;0.33;;;19.20;99.90;;;;;;4974616;28;20035;-66
2022/07/02 07:26:37;;;;;;;0.00;0.00;;;19.20;99.90;;;;;;4989403;28;20122;-67
2022/07/02 07:29:05;;;;;;;0.00;0.00;;;19.20;99.90;;;;;;4989171;28;20124;-65
2022/07/02 07:31:33;;;;;;;0.00;0.00;;;19.40;99.90;;;;;;4988637;28;20027;-65
2022/07/02 07:33:59;;;;;;;0.32;0.32;;;19.70;99.90;;;;;;4989582;28;20041;-65
2022/07/02 07:36:29;;;;;;;0.10;0.10;;;19.50;99.90;;;;;;4989719;28;20030;-65
2022/07/02 07:38:55;;;;;;;0.20;0.10;;;19.50;99.90;;;;;;4997470;28;20030;-65
2022/07/02 07:41:23;;;;;;;0.10;0.03;;;19.50;99.90;;;;;;4992018;28;20035;-65
2022/07/02 07:43:51;;;;;;;0.00;0.00;;;19.60;99.90;;;;;;4991362;28;20031;-67
2022/07/02 07:46:19;;;;;;;0.38;0.32;;;19.60;99.90;;;;;;4975279;28;20026;-68
2022/07/02 07:48:45;;;;;;;0.00;0.00;;;19.70;99.90;;;;;;4991284;28;20032;-67
2022/07/02 07:51:11;;;;;;;0.00;0.00;;;19.80;99.90;;;;;;4991041;28;20105;-67
2022/07/02 07:53:36;;;;;;;0.00;0.00;;;19.90;99.90;;;;;;4991908;28;20027;-68
2022/07/02 07:56:02;;;;;;;0.15;0.15;;;19.90;99.90;;;;;;4993535;28;20085;-67
2022/07/02 07:58:29;;;;;;;0.38;0.38;;;20.00;99.90;;;;;;4993740;28;20081;-66
2022/07/02 08:00:58;;;;;;;0.63;0.43;;;20.10;99.90;;;;;;4993694;28;20382;-66
2022/07/02 08:03:23;;;;;;;2.35;0.45;;;20.20;99.90;;;;;;4992154;28;20042;-66
2022/07/02 08:05:53;;;;;;;0.10;0.10;;;20.40;99.90;;;;;;4993730;28;20463;-66
2022/07/02 08:08:20;;;;;;;2.42;1.75;;;20.40;99.90;;;;;;4993225;28;20034;-66
2022/07/02 08:10:48;;;;;;;0.77;0.55;;;20.50;99.90;;;;;;4993824;28;20027;-66
2022/07/02 08:13:14;;;;;;;1.95;1.55;;;20.50;99.90;;;;;;4993050;28;20042;-66
2022/07/02 08:15:39;;;;;;;0.17;0.10;;;20.50;99.90;;;;;;4991938;28;20049;-66
2022/07/02 08:18:05;;;;;;;0.93;0.63;;;20.60;99.90;;;;;;4993716;28;20034;-66
2022/07/02 08:20:31;;;;;;;0.65;0.40;;;20.60;99.90;;;;;;4973925;28;20027;-66
2022/07/02 08:22:57;;;;;;;0.00;0.00;;;20.80;99.90;;;;;;4972124;28;20419;-66
2022/07/02 08:25:22;;;;;;;0.03;0.03;;;21.00;99.90;;;;;;4954521;28;20031;-69
2022/07/02 08:27:48;;;;;;;0.28;0.28;;;21.10;99.90;;;;;;4954596;28;20225;-70
2022/07/02 08:30:14;;;;;;;0.20;0.20;;;21.10;99.90;;;;;;4954204;28;20074;-69
2022/07/02 08:32:40;;;;;;;0.00;0.00;;;21.10;99.90;;;;;;4954185;29;20054;-69
2022/07/02 08:35:06;;;;;;;0.08;0.08;;;21.10;99.90;;;;;;4968820;28;20027;-69
2022/07/02 08:37:32;;;;;;;0.00;0.00;;;21.20;99.90;;;;;;4969183;28;20038;-70
2022/07/02 08:39:58;;;;;;;0.40;0.40;;;21.40;99.90;;;;;;5002990;28;20579;-69
2022/07/02 08:42:26;;;;;;;0.00;0.00;;;21.50;99.90;;;;;;4991313;28;20085;-69
2022/07/02 08:44:58;;;;;;;0.00;0.00;;;21.70;99.90;;;;;;4992814;28;20022;-69
2022/07/02 08:47:26;;;;;;;0.00;0.00;;;21.90;99.90;;;;;;4991861;28;20026;-69
2022/07/02 08:49:54;;;;;;;1.60;1.15;;;22.00;99.90;;;;;;4991134;28;20033;-69
2022/07/02 08:52:23;;;;;;;0.22;0.22;;;22.00;99.90;;;;;;4992394;28;20367;-69
2022/07/02 08:54:50;;;;;;;2.35;0.47;;;22.10;99.20;;;;;;4990679;28;20034;-69
2022/07/02 08:57:48;;;;;;;0.10;0.10;;;22.20;99.30;;;;;;4991319;28;20038;-69
2022/07/02 09:00:21;;;;;;;0.00;0.00;;;22.30;98.50;;;;;;4991234;28;20034;-69
2022/07/02 09:02:50;;;;;;;0.15;0.15;;;22.30;98.50;;;;;;4991095;28;20026;-69
2022/07/02 09:05:17;;;;;;;0.00;0.00;;;22.40;98.20;;;;;;4991420;28;20030;-69
2022/07/02 09:07:45;;;;;;;0.00;0.00;;;22.40;98.80;;;;;;4992648;28;20027;-69
2022/07/02 09:10:12;;;;;;;0.00;0.00;;;22.60;97.70;;;;;;4972387;28;20062;-69
2022/07/02 09:12:39;;;;;;;0.00;0.00;;;22.60;97.70;;;;;;4972788;28;20478;-69
2022/07/02 09:15:06;;;;;;;0.00;0.00;;;22.90;97.30;;;;;;4987543;28;20117;-69
2022/07/02 09:17:33;;;;;;;0.00;0.00;;;23.00;96.90;;;;;;4987785;28;20030;-69
2022/07/02 09:19:59;;;;;;;0.00;0.00;;;23.00;96.60;;;;;;4972836;28;20026;-70
2022/07/02 09:22:39;;;;;;;0.10;0.10;;;23.00;95.70;;;;;;4972652;28;20101;-69
2022/07/02 09:25:14;;;;;;;0.00;0.00;;;23.10;96.00;;;;;;4971673;28;20022;-69
2022/07/02 09:27:40;;;;;;;0.00;0.00;;;23.30;96.10;;;;;;4972501;28;20027;-69
2022/07/02 09:30:09;;;;;;;0.20;0.20;;;23.40;95.40;;;;;;4972613;28;20037;-69
2022/07/02 09:32:45;;;;;;;0.15;0.15;;;23.50;95.10;;;;;;4972186;28;20364;-69
2022/07/02 09:35:22;;;;;;;0.22;0.20;;;23.60;95.20;;;;;;4971410;28;20030;-69
2022/07/02 09:37:50;;;;;;;0.00;0.00;;;23.60;95.10;;;;;;4987031;28;20022;-69
2022/07/02 09:40:17;;;;;;;0.00;0.00;;;23.90;94.80;;;;;;4987231;28;20061;-69
2022/07/02 09:42:48;;;;;;;0.00;0.00;;;23.80;92.10;;;;;;4972245;28;20639;-69
2022/07/02 09:45:16;;;;;;;0.00;0.00;;;23.80;92.10;;;;;;4972182;28;20415;-69
2022/07/02 09:47:49;;;;;;;0.00;0.00;;;24.20;92.50;;;;;;4987557;28;20090;-69
2022/07/02 09:50:18;;;;;;;0.00;0.00;;;24.30;92.30;;;;;;4972396;28;20159;-69
2022/07/02 09:52:53;;;;;;;0.00;0.00;;;24.30;92.10;;;;;;4972266;28;20452;-70
2022/07/02 09:55:28;;;;;;;0.00;0.00;;;24.20;92.00;;;;;;4972126;28;20085;-69
2022/07/02 09:58:01;;;;;;;0.10;0.10;;;24.20;89.30;;;;;;4972265;28;20043;-69
2022/07/02 10:00:44;;;;;;;0.00;0.00;;;24.30;89.80;;;;;;4970967;28;20027;-69
2022/07/02 10:03:10;;;;;;;0.00;0.00;;;24.20;88.80;;;;;;4972180;28;20034;-70
2022/07/02 10:05:36;;;;;;;0.00;0.00;;;24.00;90.10;;;;;;4986666;28;20133;-68
2022/07/02 10:08:04;;;;;;;0.00;0.00;;;24.00;90.40;;;;;;4972641;28;20035;-69
2022/07/02 10:10:41;;;;;;;0.00;0.00;;;23.90;89.90;;;;;;5006652;28;20398;-69
2022/07/02 10:13:12;;;;;;;0.20;0.20;;;24.00;90.70;;;;;;4974099;28;20446;-69
2022/07/02 10:15:47;;;;;;;1.25;0.30;;;24.40;90.60;;;;;;4974804;28;20538;-69
2022/07/02 10:18:14;;;;;;;0.00;0.00;;;24.60;89.40;;;;;;4970636;28;20038;-69
2022/07/02 10:20:40;;;;;;;0.75;0.57;;;24.70;89.70;;;;;;4972287;28;20027;-69
2022/07/02 10:23:06;;;;;;;0.00;0.00;;;24.60;88.70;;;;;;4971406;28;20375;-69
2022/07/02 10:25:34;;;;;;;3.72;1.35;;;24.60;87.10;;;;;;4972010;28;20725;-70
2022/07/02 10:28:01;;;;;;;0.00;0.00;;;24.80;85.40;;;;;;4970637;28;20490;-70
2022/07/02 10:30:32;;;;;;;0.00;0.00;;;25.00;87.00;;;;;;4971903;28;20023;-69
2022/07/02 10:33:09;;;;;;;0.10;0.00;;;25.30;86.50;;;;;;4971493;28;20422;-69
2022/07/02 10:35:36;;;;;;;0.00;0.00;;;25.50;86.50;;;;;;4970455;28;20118;-68
2022/07/02 10:38:02;;;;;;;0.00;0.00;;;25.50;86.30;;;;;;4970895;28;20070;-68
2022/07/02 10:40:28;;;;;;;1.80;0.57;;;25.70;85.60;;;;;;4971700;28;20066;-69
2022/07/02 10:42:59;;;;;;;0.00;0.00;;;26.10;85.90;;;;;;4986469;28;20121;-68
2022/07/02 10:45:26;;;;;;;0.38;0.20;;;25.90;82.40;;;;;;4986278;28;20038;-69
2022/07/02 10:48:04;;;;;;;0.40;0.35;;;25.50;81.60;;;;;;4986893;28;20030;-69
2022/07/02 10:50:37;;;;;;;0.00;0.00;;;25.50;83.60;;;;;;4986707;28;20045;-69
2022/07/02 10:53:12;;;;;;;0.20;0.20;;;25.60;81.10;;;;;;4971134;28;20130;-69
2022/07/02 10:55:43;;;;;;;0.00;0.00;;;25.60;80.30;;;;;;4971514;28;20038;-69
2022/07/02 10:58:23;;;;;;;0.00;0.00;;;25.60;80.70;;;;;;4986193;28;20510;-69
2022/07/02 11:00:50;;;;;;;0.15;0.10;;;25.50;79.20;;;;;;4971584;28;20030;-70
2022/07/02 11:03:26;;;;;;;0.08;0.08;;;26.00;80.20;;;;;;4986120;28;20387;-70
2022/07/02 11:06:00;;;;;;;0.00;0.00;;;25.90;79.40;;;;;;4985679;28;20031;-70
2022/07/02 11:08:44;;;;;;;0.22;0.22;;;25.60;77.00;;;;;;4971530;28;20458;-70
2022/07/02 11:11:36;;;;;;;0.00;0.00;;;25.70;79.10;;;;;;4971723;28;20518;-70
2022/07/02 11:14:05;;;;;;;0.00;0.00;;;26.20;79.60;;;;;;4971064;28;20114;-70
2022/07/02 11:16:38;;;;;;;0.00;0.00;;;26.40;77.90;;;;;;4972014;28;20034;-70
2022/07/02 11:19:12;;;;;;;0.00;0.00;;;26.50;77.00;;;;;;4974945;28;20027;-68
2022/07/02 11:21:40;;;;;;;0.00;0.00;;;26.30;76.00;;;;;;4975179;28;20027;-68
2022/07/02 11:24:07;;;;;;;0.10;0.00;;;26.40;75.40;;;;;;4974595;28;20492;-69
2022/07/02 11:26:33;;;;;;;0.00;0.00;;;26.70;77.30;;;;;;4975211;28;20035;-68
2022/07/02 11:29:04;;;;;;;0.00;0.00;;;27.10;76.10;;;;;;4974797;28;20034;-69
2022/07/02 11:31:37;;;;;;;0.93;0.75;;;27.00;73.30;;;;;;4989719;28;20057;-70
2022/07/02 11:34:03;;;;;;;0.00;0.00;;;26.90;72.80;;;;;;4988475;28;20027;-68
2022/07/02 11:36:29;;;;;;;0.00;0.00;;;26.90;75.90;;;;;;4973278;28;20061;-69
2022/07/02 11:38:56;;;;;;;0.00;0.00;;;26.90;74.30;;;;;;4983134;28;20070;-69
2022/07/02 11:41:34;;;;;;;0.00;0.00;;;26.70;72.50;;;;;;4994011;28;20113;-69
2022/07/02 11:44:11;;;;;;;0.00;0.00;;;26.50;73.90;;;;;;4992605;28;20094;-69
2022/07/02 11:46:36;;;;;;;0.00;0.00;;;26.20;73.10;;;;;;4993962;28;20092;-69
2022/07/02 11:49:02;;;;;;;0.00;0.00;;;26.60;73.70;;;;;;4992659;28;20033;-69
2022/07/02 11:51:28;;;;;;;0.15;0.10;;;26.90;74.40;;;;;;4994238;28;20608;-69
2022/07/02 11:53:59;;;;;;;0.00;0.00;;;27.10;75.60;;;;;;4993613;28;20494;-70
2022/07/02 11:56:26;;;;;;;0.13;0.03;;;27.20;75.10;;;;;;4993442;28;20030;-69
2022/07/02 11:58:52;;;;;;;0.00;0.00;;;27.40;75.40;;;;;;4993900;28;20029;-69
2022/07/02 12:01:31;;;;;;;0.00;0.00;;;27.50;74.90;;;;;;4994004;28;20034;-69
2022/07/02 12:04:02;;;;;;;0.00;0.00;;;27.90;74.60;;;;;;4993704;28;20084;-69
2022/07/02 12:06:33;;;;;;;0.10;0.10;;;27.80;73.60;;;;;;4993833;28;20389;-68
2022/07/02 12:09:00;;;;;;;13.15;0.25;;;27.50;71.90;;;;;;4983568;28;20471;-68
2022/07/02 12:11:27;;;;;;;0.93;0.30;;;27.60;73.90;;;;;;4988943;28;20035;-69
2022/07/02 12:13:55;;;;;;;0.00;0.00;;;28.10;72.90;;;;;;4974015;28;20434;-69
2022/07/02 12:16:25;;;;;;;0.00;0.00;;;28.10;71.80;;;;;;4974028;28;20035;-68
2022/07/02 12:19:06;;;;;;;0.30;0.30;;;28.10;71.50;;;;;;4973603;28;20750;-70
2022/07/02 12:21:41;;;;;;;0.00;0.00;;;28.20;71.50;;;;;;4973737;28;20387;-69
2022/07/02 12:24:29;;;;;;;0.08;0.08;;;27.90;71.30;;;;;;4973340;28;20105;-69
2022/07/02 12:27:01;;;;;;;0.00;0.00;;;27.90;71.40;;;;;;4972563;28;20051;-69
2022/07/02 12:32:18;;;;;;;0.10;0.10;;;28.10;69.10;;;;;;4973440;28;20034;-69
2022/07/02 12:34:49;;;;;;;0.00;0.00;;;28.00;69.70;;;;;;4956414;28;20043;-69
2022/07/02 12:37:35;;;;;;;0.10;0.10;;;28.00;69.40;;;;;;4973596;28;20043;-69
2022/07/02 12:40:20;;;;;;;0.03;0.00;;;28.10;67.80;;;;;;4973605;28;20038;-69
2022/07/02 12:42:51;;;;;;;0.00;0.00;;;28.30;68.50;;;;;;4973190;28;20074;-69
2022/07/02 12:45:29;;;;;;;0.00;0.00;;;28.30;68.00;;;;;;4973502;28;20134;-69
2022/07/02 12:48:06;;;;;;;0.00;0.00;;;28.10;68.10;;;;;;4972336;28;20360;-69
2022/07/02 12:50:38;;;;;;;0.00;0.00;;;28.30;69.10;;;;;;4987809;28;20022;-70
2022/07/02 12:53:09;;;;;;;0.00;0.00;;;28.90;71.50;;;;;;4973107;28;20380;-70
2022/07/02 12:55:39;;;;;;;0.00;0.00;;;29.20;67.90;;;;;;4973591;28;20031;-70
2022/07/02 12:58:11;;;;;;;0.10;0.03;;;29.60;66.20;;;;;;4973102;28;20038;-70
2022/07/02 13:00:40;;;;;;;0.00;0.00;;;29.90;67.50;;;;;;4973184;28;20023;-70